Time;durP1;ratioP1;P1;durP2;ratioP2;P2;SDS_P1;SDS_P2;PMS_P1;PMS_P2;Temp;Humidity;BMP_temperature;BMP_pressure;BME280_temperature;BME280_humidity;BME280_pressure;Samples;Min_cycle;Max_cycle;Signal;HPM_P1;HPM_P2
2020/12/09 00:00:09;;;;;;;45.27;24.50;;;3.60;99.90;;;;;;5002950;28;20169;-50
2020/12/09 00:02:34;;;;;;;53.20;26.10;;;3.60;99.90;;;;;;5000221;28;20926;-44
2020/12/09 00:05:05;;;;;;;55.87;27.23;;;3.60;99.90;;;;;;5003289;28;20181;-44
2020/12/09 00:07:34;;;;;;;58.83;27.20;;;3.60;99.90;;;;;;4996169;28;20176;-47
2020/12/09 00:09:59;;;;;;;53.30;26.97;;;3.50;99.90;;;;;;5021684;28;20180;-45
2020/12/09 00:12:27;;;;;;;48.70;24.70;;;3.50;99.90;;;;;;5000799;28;20413;-48
2020/12/09 00:14:53;;;;;;;51.77;27.00;;;3.50;99.90;;;;;;5005506;28;20683;-44
2020/12/09 00:17:18;;;;;;;59.73;26.03;;;3.40;99.90;;;;;;5014509;28;20176;-50
2020/12/09 00:19:43;;;;;;;54.23;25.53;;;3.40;99.90;;;;;;5024888;28;20173;-44
2020/12/09 00:22:10;;;;;;;51.57;26.27;;;3.40;99.90;;;;;;5023792;28;20303;-47
2020/12/09 00:24:35;;;;;;;53.60;26.63;;;3.30;99.90;;;;;;5005488;28;20263;-49
2020/12/09 00:27:00;;;;;;;51.30;25.43;;;3.40;99.90;;;;;;5006210;28;20251;-45
2020/12/09 00:29:26;;;;;;;54.27;26.23;;;3.30;99.90;;;;;;4988659;28;20189;-44
2020/12/09 00:31:51;;;;;;;44.37;23.90;;;3.30;99.90;;;;;;5002239;28;20207;-46
2020/12/09 00:34:17;;;;;;;46.77;24.47;;;3.30;99.90;;;;;;5003373;28;20347;-48
2020/12/09 00:36:42;;;;;;;48.30;23.70;;;3.20;99.90;;;;;;5004928;28;20196;-49
2020/12/09 00:39:08;;;;;;;42.30;23.07;;;3.20;99.90;;;;;;5004918;28;20723;-46
2020/12/09 00:41:33;;;;;;;47.17;22.43;;;3.20;99.90;;;;;;5002981;28;20255;-44
2020/12/09 00:43:59;;;;;;;45.27;23.53;;;3.20;99.90;;;;;;5025052;28;20207;-48
2020/12/09 00:46:26;;;;;;;47.10;22.73;;;3.20;99.90;;;;;;4990615;28;20267;-49
2020/12/09 00:48:52;;;;;;;51.97;24.70;;;3.10;99.90;;;;;;5002581;28;20185;-46
2020/12/09 00:51:20;;;;;;;46.53;22.83;;;3.00;99.90;;;;;;5002665;28;20212;-49
2020/12/09 00:53:46;;;;;;;48.07;22.63;;;3.00;99.90;;;;;;5003770;28;20212;-45
2020/12/09 00:56:12;;;;;;;53.33;24.90;;;3.00;99.90;;;;;;5004290;28;20182;-46
2020/12/09 00:58:38;;;;;;;47.63;23.43;;;3.00;99.90;;;;;;5021403;28;20742;-44
2020/12/09 01:01:06;;;;;;;52.43;24.87;;;3.10;99.90;;;;;;4982395;28;20189;-47
2020/12/09 01:03:32;;;;;;;50.63;24.10;;;3.10;99.90;;;;;;5009969;28;20192;-48
2020/12/09 01:05:58;;;;;;;57.13;23.97;;;3.00;99.90;;;;;;5024712;28;20188;-48
2020/12/09 01:08:24;;;;;;;57.60;26.03;;;3.00;99.90;;;;;;5020079;28;20209;-44
2020/12/09 01:10:49;;;;;;;63.43;26.10;;;3.10;99.90;;;;;;5024318;28;20559;-47
2020/12/09 01:13:15;;;;;;;55.17;25.03;;;3.10;99.90;;;;;;5021951;28;20267;-47
2020/12/09 01:15:42;;;;;;;56.87;26.17;;;3.10;99.90;;;;;;4999316;28;20197;-45
2020/12/09 01:18:07;;;;;;;58.40;26.20;;;3.10;99.90;;;;;;5003710;28;20662;-50
2020/12/09 01:20:33;;;;;;;60.07;25.77;;;3.20;99.90;;;;;;5001544;28;20227;-45
2020/12/09 01:22:58;;;;;;;59.27;25.67;;;3.20;99.90;;;;;;5005056;28;20566;-45
2020/12/09 01:25:24;;;;;;;59.77;27.10;;;3.20;99.90;;;;;;4997297;28;20232;-46
2020/12/09 01:27:50;;;;;;;63.37;28.30;;;3.20;99.90;;;;;;5019946;28;20200;-46
2020/12/09 01:30:15;;;;;;;53.93;24.83;;;3.20;99.90;;;;;;5020618;28;20184;-45
2020/12/09 01:32:41;;;;;;;55.50;26.20;;;3.20;99.90;;;;;;4986930;28;20950;-46
2020/12/09 01:35:06;;;;;;;63.60;26.00;;;3.10;99.90;;;;;;5001834;28;20220;-49
2020/12/09 01:37:32;;;;;;;59.63;26.30;;;3.10;99.90;;;;;;5002263;28;20205;-47
2020/12/09 01:39:58;;;;;;;56.60;26.27;;;3.10;99.90;;;;;;5005107;28;20188;-44
2020/12/09 01:42:23;;;;;;;56.97;25.37;;;3.10;99.90;;;;;;5000698;28;20281;-46
2020/12/09 01:44:48;;;;;;;55.83;25.77;;;3.10;99.90;;;;;;5005165;28;21023;-46
2020/12/09 01:47:14;;;;;;;57.07;25.60;;;3.10;99.90;;;;;;4986825;28;20307;-47
2020/12/09 01:49:40;;;;;;;52.13;23.87;;;3.10;99.90;;;;;;5010351;28;20935;-46
2020/12/09 01:52:05;;;;;;;54.90;25.43;;;3.10;99.90;;;;;;5003718;28;20208;-49
2020/12/09 01:54:32;;;;;;;54.93;24.83;;;3.00;99.90;;;;;;4995457;28;20177;-45
2020/12/09 01:57:05;;;;;;;53.60;24.47;;;3.00;99.90;;;;;;5003275;28;20579;-46
2020/12/09 01:59:31;;;;;;;50.33;24.40;;;3.00;99.90;;;;;;5020355;28;20180;-44
2020/12/09 02:01:58;;;;;;;55.13;24.23;;;3.00;99.90;;;;;;4998809;28;20575;-44
2020/12/09 02:04:23;;;;;;;53.27;23.20;;;3.00;99.90;;;;;;5001156;28;20182;-48
2020/12/09 02:06:51;;;;;;;52.27;24.33;;;3.00;99.90;;;;;;5005940;28;20187;-45
2020/12/09 02:09:17;;;;;;;54.60;23.97;;;3.00;99.90;;;;;;5001716;28;20240;-47
2020/12/09 02:11:43;;;;;;;54.77;24.40;;;3.00;99.90;;;;;;4996967;28;20284;-43
2020/12/09 02:14:08;;;;;;;53.97;23.87;;;3.00;99.90;;;;;;5005686;28;20177;-50
2020/12/09 02:16:34;;;;;;;53.20;24.70;;;3.00;99.90;;;;;;5000938;28;20180;-46
2020/12/09 02:18:59;;;;;;;51.67;24.73;;;3.00;99.90;;;;;;4983820;28;20598;-48
2020/12/09 02:21:24;;;;;;;57.17;24.67;;;3.00;99.90;;;;;;5003900;28;20271;-47
2020/12/09 02:23:50;;;;;;;56.37;23.40;;;3.00;99.90;;;;;;5003760;28;20216;-48
2020/12/09 02:26:15;;;;;;;51.37;24.77;;;3.00;99.90;;;;;;5001150;28;20644;-49
2020/12/09 02:28:41;;;;;;;59.20;25.30;;;3.00;99.90;;;;;;5004312;28;20306;-46
2020/12/09 02:31:06;;;;;;;54.53;24.50;;;3.00;99.90;;;;;;5002200;28;20208;-51
2020/12/09 02:33:33;;;;;;;54.30;24.13;;;3.00;99.90;;;;;;4982729;28;20302;-43
2020/12/09 02:35:58;;;;;;;51.57;24.63;;;3.00;99.90;;;;;;5001424;28;20548;-46
2020/12/09 02:38:24;;;;;;;54.57;24.17;;;2.90;99.90;;;;;;5001889;28;20177;-46
2020/12/09 02:40:49;;;;;;;61.13;24.87;;;2.90;99.90;;;;;;5003794;28;20185;-46
2020/12/09 02:43:15;;;;;;;59.83;24.83;;;2.90;99.90;;;;;;5001423;28;20227;-49
2020/12/09 02:45:40;;;;;;;55.00;23.87;;;2.90;99.90;;;;;;5002441;28;20251;-45
2020/12/09 02:48:06;;;;;;;61.80;26.73;;;2.90;99.90;;;;;;5003338;28;20203;-50
2020/12/09 02:50:31;;;;;;;52.20;23.93;;;2.90;99.90;;;;;;4984944;28;20218;-45
2020/12/09 02:52:56;;;;;;;55.37;25.20;;;3.00;99.90;;;;;;5007886;28;20291;-43
2020/12/09 02:55:22;;;;;;;62.30;26.20;;;3.00;99.90;;;;;;4995259;28;20841;-50
2020/12/09 02:57:48;;;;;;;59.47;26.20;;;3.00;99.90;;;;;;5016422;28;20230;-44
2020/12/09 03:00:14;;;;;;;58.33;25.27;;;3.00;99.90;;;;;;5020451;28;21137;-49
2020/12/09 03:02:40;;;;;;;53.97;23.47;;;3.00;99.90;;;;;;5020648;28;21037;-43
2020/12/09 03:05:05;;;;;;;59.87;24.90;;;3.00;99.90;;;;;;4997599;28;20223;-48
2020/12/09 03:07:30;;;;;;;65.07;26.33;;;3.00;99.90;;;;;;5000702;28;20382;-46
2020/12/09 03:09:56;;;;;;;60.73;24.87;;;3.00;99.90;;;;;;5004419;28;20652;-44
2020/12/09 03:12:21;;;;;;;62.23;27.03;;;3.00;99.90;;;;;;4999417;28;20291;-50
2020/12/09 03:14:47;;;;;;;53.50;26.30;;;3.00;99.90;;;;;;5003381;28;20185;-44
2020/12/09 03:17:12;;;;;;;55.50;25.97;;;3.00;99.90;;;;;;5001679;28;20173;-46
2020/12/09 03:19:38;;;;;;;59.83;26.37;;;3.10;99.90;;;;;;4984570;28;20180;-46
2020/12/09 03:22:03;;;;;;;52.03;23.23;;;3.00;99.90;;;;;;4997301;28;20197;-49
2020/12/09 03:24:29;;;;;;;59.40;25.93;;;3.00;99.90;;;;;;5017430;28;20205;-46
2020/12/09 03:26:54;;;;;;;64.73;25.90;;;3.00;99.90;;;;;;5022491;28;20279;-45
2020/12/09 03:29:19;;;;;;;66.13;25.23;;;3.00;99.90;;;;;;5018940;28;20609;-49
2020/12/09 03:31:45;;;;;;;56.70;24.47;;;3.10;99.90;;;;;;5019288;28;20213;-47
2020/12/09 03:34:10;;;;;;;59.00;24.23;;;3.10;99.90;;;;;;5012668;28;20263;-44
2020/12/09 03:36:36;;;;;;;60.50;24.43;;;3.10;99.90;;;;;;4987160;28;20185;-48
2020/12/09 03:39:02;;;;;;;51.40;23.20;;;3.10;99.90;;;;;;5021003;28;20203;-45
2020/12/09 03:41:28;;;;;;;62.13;25.43;;;3.10;99.90;;;;;;5018338;28;20961;-46
2020/12/09 03:43:53;;;;;;;55.17;24.00;;;3.10;99.90;;;;;;5026224;28;20208;-44
2020/12/09 03:46:18;;;;;;;58.00;25.57;;;3.10;99.90;;;;;;5022964;28;20711;-51
2020/12/09 03:48:44;;;;;;;52.20;22.37;;;3.10;99.90;;;;;;5025326;28;20275;-43
2020/12/09 03:51:09;;;;;;;59.07;24.23;;;3.10;99.90;;;;;;4993069;28;20212;-46
2020/12/09 03:53:35;;;;;;;58.50;24.63;;;3.10;99.90;;;;;;5001641;28;20915;-43
2020/12/09 03:56:01;;;;;;;58.53;24.10;;;3.10;99.90;;;;;;5006973;28;20232;-48
2020/12/09 03:58:26;;;;;;;52.37;23.77;;;3.10;99.90;;;;;;5002598;28;20888;-44
2020/12/09 04:00:52;;;;;;;64.23;26.67;;;3.20;99.90;;;;;;5006653;28;20188;-46
2020/12/09 04:03:17;;;;;;;61.73;24.80;;;3.10;99.90;;;;;;5003498;28;20213;-46
2020/12/09 04:05:43;;;;;;;56.10;23.87;;;3.10;99.90;;;;;;4988365;28;22412;-47
2020/12/09 04:08:08;;;;;;;57.47;25.43;;;3.10;99.90;;;;;;5005528;28;20642;-46
2020/12/09 04:10:34;;;;;;;55.97;24.37;;;3.10;99.90;;;;;;5007561;28;20176;-45
2020/12/09 04:12:59;;;;;;;59.80;24.13;;;3.10;99.90;;;;;;5006347;28;20216;-44
2020/12/09 04:15:25;;;;;;;63.20;23.97;;;3.10;99.90;;;;;;5002565;28;20208;-45
2020/12/09 04:17:50;;;;;;;63.63;24.43;;;3.10;99.90;;;;;;5000245;28;20188;-46
2020/12/09 04:20:16;;;;;;;56.30;25.27;;;3.10;99.90;;;;;;5004392;28;20183;-44
2020/12/09 04:22:41;;;;;;;54.03;24.33;;;3.20;99.90;;;;;;4991696;28;20196;-48
2020/12/09 04:25:07;;;;;;;57.67;25.90;;;3.20;99.90;;;;;;4997960;28;20216;-47
2020/12/09 04:27:32;;;;;;;51.67;25.60;;;3.20;99.90;;;;;;5002675;28;20181;-44
2020/12/09 04:29:58;;;;;;;51.77;24.77;;;3.20;99.90;;;;;;5006457;28;20250;-47
2020/12/09 04:32:24;;;;;;;52.60;24.07;;;3.20;99.90;;;;;;5000959;28;20989;-44
2020/12/09 04:34:50;;;;;;;60.67;25.50;;;3.20;99.90;;;;;;4999679;28;20780;-45
2020/12/09 04:37:19;;;;;;;52.90;24.57;;;3.20;99.90;;;;;;4990360;28;20186;-47
2020/12/09 04:39:44;;;;;;;50.37;23.33;;;3.20;99.90;;;;;;4999774;28;20260;-45
2020/12/09 04:42:17;;;;;;;63.67;25.37;;;3.20;99.90;;;;;;5023334;28;20291;-48
2020/12/09 04:44:42;;;;;;;57.73;24.87;;;3.20;99.90;;;;;;5023909;28;20188;-47
2020/12/09 04:47:17;;;;;;;56.73;24.10;;;3.20;99.90;;;;;;5023852;28;20549;-44
2020/12/09 04:49:46;;;;;;;58.20;25.47;;;3.30;99.90;;;;;;5002888;28;20662;-45
2020/12/09 04:52:41;;;;;;;56.73;23.37;;;3.30;99.90;;;;;;4983661;28;20288;-46
2020/12/09 04:55:09;;;;;;;53.17;24.17;;;3.30;99.90;;;;;;5005364;28;20192;-46
2020/12/09 04:57:38;;;;;;;58.37;24.27;;;3.30;99.90;;;;;;5013460;28;20203;-46
2020/12/09 05:00:09;;;;;;;54.60;23.80;;;3.30;99.90;;;;;;5024573;28;20218;-48
2020/12/09 05:02:44;;;;;;;58.50;24.60;;;3.30;99.90;;;;;;5002111;28;20938;-46
2020/12/09 05:05:15;;;;;;;55.40;25.23;;;3.40;99.90;;;;;;4997452;28;20611;-47
2020/12/09 05:07:45;;;;;;;57.67;25.17;;;3.40;99.90;;;;;;5014941;28;20245;-48
2020/12/09 05:10:14;;;;;;;53.97;23.47;;;3.40;99.90;;;;;;4983576;28;20260;-46
2020/12/09 05:12:42;;;;;;;66.77;25.57;;;3.40;99.90;;;;;;5015192;28;20988;-45
2020/12/09 05:15:17;;;;;;;51.37;24.13;;;3.40;99.90;;;;;;5023179;28;20179;-46
2020/12/09 05:18:01;;;;;;;52.33;24.50;;;3.40;99.90;;;;;;5023204;28;20776;-46
2020/12/09 05:20:28;;;;;;;48.87;23.47;;;3.30;99.90;;;;;;5002379;28;20194;-45
2020/12/09 05:22:55;;;;;;;55.07;23.13;;;3.40;99.90;;;;;;5003660;28;20210;-44
2020/12/09 05:25:22;;;;;;;53.43;24.07;;;3.40;99.90;;;;;;4995635;28;20195;-50
2020/12/09 05:27:47;;;;;;;51.60;24.37;;;3.40;99.90;;;;;;5005672;28;20198;-44
2020/12/09 05:30:14;;;;;;;48.90;24.37;;;3.40;99.90;;;;;;5022100;28;20184;-46
2020/12/09 05:32:54;;;;;;;56.17;24.27;;;3.40;99.90;;;;;;5021675;28;20230;-44
2020/12/09 05:35:20;;;;;;;54.87;22.97;;;3.40;99.90;;;;;;5020623;28;20207;-47
2020/12/09 05:37:45;;;;;;;53.30;23.43;;;3.40;99.90;;;;;;5010801;28;20222;-46
2020/12/09 05:40:11;;;;;;;48.60;23.87;;;3.40;99.90;;;;;;5014053;28;20176;-47
2020/12/09 05:42:42;;;;;;;50.60;22.00;;;3.40;99.90;;;;;;4993333;28;20453;-47
2020/12/09 05:45:07;;;;;;;54.70;24.00;;;3.40;99.90;;;;;;5009845;28;20199;-48
2020/12/09 05:47:33;;;;;;;52.93;24.33;;;3.40;99.90;;;;;;5001750;28;20181;-45
2020/12/09 05:49:58;;;;;;;55.43;24.17;;;3.40;99.90;;;;;;5001838;28;20193;-45
2020/12/09 05:52:24;;;;;;;58.67;26.03;;;3.40;99.90;;;;;;4995354;28;20997;-45
2020/12/09 05:54:51;;;;;;;49.13;23.87;;;3.40;99.90;;;;;;5004801;28;20184;-44
2020/12/09 05:57:25;;;;;;;55.50;24.13;;;3.40;99.90;;;;;;4976823;28;20702;-44
2020/12/09 05:59:50;;;;;;;54.50;24.33;;;3.40;99.90;;;;;;5003811;28;20254;-47
2020/12/09 06:02:21;;;;;;;56.20;24.50;;;3.40;99.90;;;;;;5011546;28;20906;-44
2020/12/09 06:04:49;;;;;;;53.27;24.20;;;3.40;99.90;;;;;;5015666;28;20683;-47
2020/12/09 06:07:15;;;;;;;52.33;24.87;;;3.40;99.90;;;;;;5020513;28;20176;-46
2020/12/09 06:09:59;;;;;;;53.07;25.10;;;3.40;99.90;;;;;;5015281;28;20703;-45
2020/12/09 06:12:25;;;;;;;54.43;23.10;;;3.40;99.90;;;;;;4984563;28;20216;-44
2020/12/09 06:15:13;;;;;;;56.00;24.90;;;3.40;99.90;;;;;;5007866;28;20185;-48
2020/12/09 06:17:39;;;;;;;52.60;23.60;;;3.40;99.90;;;;;;4990673;28;20192;-47
2020/12/09 06:20:04;;;;;;;58.50;25.63;;;3.40;99.90;;;;;;4997745;28;20239;-46
2020/12/09 06:22:33;;;;;;;52.93;24.33;;;3.40;99.90;;;;;;4998975;28;20216;-48
2020/12/09 06:25:07;;;;;;;55.23;24.93;;;3.50;99.90;;;;;;4999345;28;20189;-45
2020/12/09 06:27:34;;;;;;;55.07;24.80;;;3.50;99.90;;;;;;5004012;28;20551;-45
2020/12/09 06:30:01;;;;;;;48.63;22.63;;;3.50;99.90;;;;;;4978420;28;20207;-49
2020/12/09 06:32:26;;;;;;;67.57;24.37;;;3.50;99.90;;;;;;5002663;28;20208;-44
2020/12/09 06:35:10;;;;;;;61.57;24.33;;;3.50;99.90;;;;;;4988731;28;20284;-47
2020/12/09 06:37:35;;;;;;;50.57;23.33;;;3.50;99.90;;;;;;5000520;28;20238;-49
2020/12/09 06:40:12;;;;;;;53.70;24.70;;;3.50;99.90;;;;;;4992998;28;20821;-45
2020/12/09 06:42:38;;;;;;;53.80;25.47;;;3.50;99.90;;;;;;5005461;28;20200;-48
2020/12/09 06:45:05;;;;;;;54.63;24.83;;;3.50;99.90;;;;;;4981677;28;20268;-44
2020/12/09 06:47:31;;;;;;;53.47;24.33;;;3.50;99.90;;;;;;5007194;28;20898;-50
2020/12/09 06:49:57;;;;;;;53.13;24.60;;;3.50;99.90;;;;;;4994534;28;20182;-44
2020/12/09 06:52:30;;;;;;;57.37;25.50;;;3.50;99.90;;;;;;4999242;28;20212;-49
2020/12/09 06:54:57;;;;;;;52.17;23.37;;;3.50;99.90;;;;;;4995765;28;20287;-45
2020/12/09 06:57:29;;;;;;;55.63;25.83;;;3.50;99.90;;;;;;4995625;28;20595;-47
2020/12/09 07:00:10;;;;;;;51.83;23.63;;;3.50;99.90;;;;;;4986533;28;20948;-45
2020/12/09 07:02:36;;;;;;;56.17;25.67;;;3.50;99.90;;;;;;5004730;28;20196;-50
2020/12/09 07:05:01;;;;;;;56.80;25.77;;;3.50;99.90;;;;;;4992811;28;20714;-50
2020/12/09 07:07:32;;;;;;;57.20;25.27;;;3.50;99.90;;;;;;5012710;28;20272;-45
2020/12/09 07:09:58;;;;;;;55.57;24.03;;;3.60;99.90;;;;;;4993105;28;20272;-48
2020/12/09 07:12:24;;;;;;;55.00;25.47;;;3.50;99.90;;;;;;5003886;28;20203;-47
2020/12/09 07:14:52;;;;;;;58.10;24.30;;;3.50;99.90;;;;;;4995675;28;20195;-47
2020/12/09 07:17:21;;;;;;;58.37;26.63;;;3.60;99.90;;;;;;4999444;28;20180;-48
2020/12/09 07:19:47;;;;;;;52.93;25.73;;;3.60;99.90;;;;;;5019999;28;20188;-45
2020/12/09 07:22:13;;;;;;;54.43;24.33;;;3.60;99.90;;;;;;5007937;28;20219;-46
2020/12/09 07:24:38;;;;;;;62.20;26.40;;;3.60;99.90;;;;;;5007960;28;20669;-50
2020/12/09 07:27:04;;;;;;;66.97;26.83;;;3.60;99.90;;;;;;4998903;28;20181;-44
2020/12/09 07:29:29;;;;;;;62.07;26.57;;;3.60;99.90;;;;;;5006650;28;20200;-47
2020/12/09 07:32:00;;;;;;;59.53;26.80;;;3.60;99.90;;;;;;4982411;28;20209;-44
2020/12/09 07:34:26;;;;;;;57.07;24.10;;;3.60;99.90;;;;;;5002500;28;20642;-46
2020/12/09 07:36:53;;;;;;;59.47;26.13;;;3.60;99.90;;;;;;4998387;28;20188;-44
2020/12/09 07:39:30;;;;;;;59.97;26.93;;;3.60;99.90;;;;;;5001530;28;20177;-44
2020/12/09 07:42:00;;;;;;;59.77;25.53;;;3.60;99.90;;;;;;5003242;28;20177;-44
2020/12/09 07:44:26;;;;;;;60.83;25.33;;;3.60;99.90;;;;;;5013408;28;20255;-47
2020/12/09 07:46:53;;;;;;;65.03;25.70;;;3.60;99.90;;;;;;4980629;28;20813;-51
2020/12/09 07:49:19;;;;;;;63.03;26.80;;;3.60;99.90;;;;;;5011067;28;20188;-46
2020/12/09 07:51:44;;;;;;;58.93;26.67;;;3.60;99.90;;;;;;5019448;28;20204;-51
2020/12/09 07:54:10;;;;;;;64.60;27.30;;;3.60;99.90;;;;;;5002810;28;20180;-44
2020/12/09 07:56:36;;;;;;;62.60;27.43;;;3.60;99.90;;;;;;5009087;28;20237;-46
2020/12/09 07:59:02;;;;;;;59.40;25.37;;;3.60;99.90;;;;;;4993519;28;20180;-45
2020/12/09 08:01:28;;;;;;;61.20;26.87;;;3.60;99.90;;;;;;4988720;28;20691;-44
2020/12/09 08:03:53;;;;;;;59.83;25.70;;;3.60;99.90;;;;;;5007968;28;20201;-48
2020/12/09 08:06:22;;;;;;;60.60;26.37;;;3.60;99.90;;;;;;5009887;28;20193;-47
2020/12/09 08:08:50;;;;;;;67.00;25.37;;;3.50;99.90;;;;;;5001025;28;20185;-50
2020/12/09 08:11:16;;;;;;;60.70;26.67;;;3.50;99.90;;;;;;4999680;28;20270;-47
2020/12/09 08:13:41;;;;;;;63.20;26.17;;;3.50;99.90;;;;;;4998324;28;20209;-45
2020/12/09 08:16:12;;;;;;;65.60;27.10;;;3.50;99.90;;;;;;4997823;28;20708;-46
2020/12/09 08:18:42;;;;;;;64.17;27.13;;;3.50;99.90;;;;;;4989628;28;20189;-45
2020/12/09 08:21:10;;;;;;;65.30;26.23;;;3.60;99.90;;;;;;4992039;28;20208;-48
2020/12/09 08:23:54;;;;;;;55.77;25.13;;;3.60;99.90;;;;;;4992227;28;21016;-47
2020/12/09 08:26:32;;;;;;;58.80;24.30;;;3.60;99.90;;;;;;5003473;28;20206;-49
2020/12/09 08:28:58;;;;;;;57.93;25.97;;;3.60;99.90;;;;;;4999881;28;20222;-48
2020/12/09 08:31:24;;;;;;;60.80;27.23;;;3.60;99.90;;;;;;4988037;28;20246;-50
2020/12/09 08:33:52;;;;;;;60.87;26.17;;;3.60;99.90;;;;;;4997463;28;20211;-46
2020/12/09 08:36:20;;;;;;;57.00;25.00;;;3.60;99.90;;;;;;4996570;28;20212;-50
2020/12/09 08:38:48;;;;;;;60.47;24.87;;;3.60;99.90;;;;;;4993257;28;20203;-45
2020/12/09 08:41:16;;;;;;;58.97;26.23;;;3.60;99.90;;;;;;5007082;28;20560;-53
2020/12/09 08:43:43;;;;;;;53.07;24.30;;;3.70;99.90;;;;;;5001359;28;20203;-44
2020/12/09 08:46:11;;;;;;;60.50;26.03;;;3.70;99.90;;;;;;4990730;28;20557;-47
2020/12/09 08:48:38;;;;;;;55.87;24.97;;;3.70;99.90;;;;;;4986729;28;20184;-49
2020/12/09 08:51:05;;;;;;;55.60;25.03;;;3.70;99.90;;;;;;4988489;28;20220;-46
2020/12/09 08:53:31;;;;;;;62.17;26.47;;;3.70;99.90;;;;;;4996187;28;20215;-47
2020/12/09 08:55:57;;;;;;;52.10;23.80;;;3.70;99.90;;;;;;4991433;28;21131;-46
2020/12/09 08:58:22;;;;;;;51.27;25.93;;;3.70;99.90;;;;;;5009677;28;20181;-45
2020/12/09 09:00:48;;;;;;;58.23;24.77;;;3.70;99.90;;;;;;4991581;28;20208;-46
2020/12/09 09:03:18;;;;;;;66.73;25.47;;;3.70;99.90;;;;;;4984044;28;20223;-47
2020/12/09 09:05:45;;;;;;;54.90;24.47;;;3.70;99.90;;;;;;5003871;28;20196;-47
2020/12/09 09:08:12;;;;;;;57.30;25.70;;;3.70;99.90;;;;;;5002541;28;20189;-47
2020/12/09 09:10:38;;;;;;;59.77;26.97;;;3.70;99.90;;;;;;5000968;28;20193;-47
2020/12/09 09:13:04;;;;;;;50.47;24.07;;;3.70;99.90;;;;;;4995041;28;20190;-47
2020/12/09 09:15:31;;;;;;;54.70;25.00;;;3.70;99.90;;;;;;4996944;28;20207;-44
2020/12/09 09:17:58;;;;;;;58.93;24.70;;;3.70;99.90;;;;;;4989795;28;20208;-48
2020/12/09 09:20:24;;;;;;;57.30;24.53;;;3.60;99.90;;;;;;5013502;28;20176;-43
2020/12/09 09:22:49;;;;;;;57.47;24.23;;;3.70;99.90;;;;;;4990376;28;20303;-52
2020/12/09 09:25:15;;;;;;;57.87;25.43;;;3.70;99.90;;;;;;5000773;28;20189;-45
2020/12/09 09:27:40;;;;;;;58.47;24.97;;;3.70;99.90;;;;;;4998895;28;20195;-49
2020/12/09 09:30:07;;;;;;;62.23;25.53;;;3.70;99.90;;;;;;4996889;28;20208;-45
2020/12/09 09:32:33;;;;;;;56.13;24.43;;;3.70;99.90;;;;;;4986958;28;20579;-44
2020/12/09 09:34:58;;;;;;;58.43;24.57;;;3.70;99.90;;;;;;5006301;28;20184;-45
2020/12/09 09:37:24;;;;;;;52.70;23.23;;;3.70;99.90;;;;;;5000090;28;20642;-47
2020/12/09 09:39:51;;;;;;;55.43;24.03;;;3.70;99.90;;;;;;4994816;28;20671;-48
2020/12/09 09:42:17;;;;;;;53.37;22.53;;;3.70;99.90;;;;;;4999000;28;20549;-45
2020/12/09 09:44:45;;;;;;;53.57;24.50;;;3.70;99.90;;;;;;5003871;28;20189;-47
2020/12/09 09:47:11;;;;;;;46.10;23.33;;;3.70;99.90;;;;;;4996601;28;20196;-50
2020/12/09 09:49:36;;;;;;;52.30;24.17;;;3.70;99.90;;;;;;4987306;28;20196;-50
2020/12/09 09:52:02;;;;;;;53.13;23.67;;;3.70;99.90;;;;;;5002063;28;20198;-46
2020/12/09 09:54:27;;;;;;;53.20;24.27;;;3.70;99.90;;;;;;4999838;28;20203;-44
2020/12/09 09:56:52;;;;;;;55.33;24.03;;;3.70;99.90;;;;;;4990920;28;20208;-46
2020/12/09 09:59:18;;;;;;;53.43;23.87;;;3.70;99.90;;;;;;4998961;28;20188;-45
2020/12/09 10:01:44;;;;;;;52.60;22.97;;;3.70;99.90;;;;;;5002994;28;20188;-47
2020/12/09 10:04:09;;;;;;;51.33;23.97;;;3.70;99.90;;;;;;4974665;28;20189;-46
2020/12/09 10:06:36;;;;;;;47.63;22.53;;;3.80;99.90;;;;;;5009825;28;20197;-47
2020/12/09 10:09:03;;;;;;;52.17;22.80;;;3.70;99.90;;;;;;4992304;28;20312;-46
2020/12/09 10:11:29;;;;;;;45.73;21.67;;;3.80;99.90;;;;;;5000610;28;20197;-47
2020/12/09 10:13:54;;;;;;;47.67;22.67;;;3.80;99.90;;;;;;4999911;28;20200;-47
2020/12/09 10:16:23;;;;;;;51.30;23.40;;;3.80;99.90;;;;;;4993236;28;20180;-44
2020/12/09 10:18:49;;;;;;;49.83;22.70;;;3.80;99.90;;;;;;4994404;28;20193;-49
2020/12/09 10:21:21;;;;;;;50.70;23.13;;;3.80;99.90;;;;;;4980850;28;20201;-43
2020/12/09 10:23:46;;;;;;;47.90;21.67;;;3.80;99.90;;;;;;4997527;28;20201;-48
2020/12/09 10:26:12;;;;;;;46.07;21.73;;;3.80;99.90;;;;;;4995075;28;20184;-48
2020/12/09 10:28:37;;;;;;;48.70;21.97;;;3.80;99.90;;;;;;5022250;28;20291;-48
2020/12/09 10:31:03;;;;;;;43.03;20.90;;;3.80;99.90;;;;;;5005501;28;20209;-49
2020/12/09 10:33:28;;;;;;;47.00;22.70;;;3.80;99.90;;;;;;5000306;28;20212;-47
2020/12/09 10:35:53;;;;;;;50.67;21.97;;;3.80;99.90;;;;;;4993412;28;20192;-45
2020/12/09 10:38:19;;;;;;;44.87;21.10;;;3.80;99.90;;;;;;4998277;28;20245;-47
2020/12/09 10:40:44;;;;;;;44.70;21.10;;;3.90;99.90;;;;;;5011935;28;20215;-46
2020/12/09 10:43:10;;;;;;;43.10;20.20;;;3.90;99.90;;;;;;4999371;28;20200;-45
2020/12/09 10:45:35;;;;;;;48.47;21.17;;;3.90;99.90;;;;;;5002823;28;20231;-50
2020/12/09 10:48:01;;;;;;;45.70;20.90;;;3.90;99.90;;;;;;5011128;28;20176;-46
2020/12/09 10:50:26;;;;;;;49.57;21.43;;;3.90;99.90;;;;;;5010874;28;20184;-44
2020/12/09 10:52:52;;;;;;;45.77;20.33;;;3.90;99.90;;;;;;4975140;28;20698;-49
2020/12/09 10:55:17;;;;;;;43.00;20.00;;;3.90;99.90;;;;;;5007036;28;20177;-44
2020/12/09 10:57:43;;;;;;;42.83;19.70;;;3.90;99.90;;;;;;5002886;28;20551;-45
2020/12/09 11:00:08;;;;;;;41.17;20.03;;;4.00;99.90;;;;;;5016369;28;20251;-46
2020/12/09 11:02:34;;;;;;;46.87;20.20;;;4.00;99.90;;;;;;4998868;28;20204;-46
2020/12/09 11:04:59;;;;;;;44.83;19.73;;;4.00;99.90;;;;;;4984975;28;20272;-43
2020/12/09 11:07:25;;;;;;;37.57;19.73;;;4.00;99.90;;;;;;5004723;28;20184;-43
2020/12/09 11:09:50;;;;;;;47.10;22.07;;;4.00;99.90;;;;;;4984559;28;20194;-47
2020/12/09 11:12:17;;;;;;;47.83;21.80;;;4.00;99.90;;;;;;5004868;28;20251;-46
2020/12/09 11:14:42;;;;;;;44.93;20.20;;;4.10;99.90;;;;;;4995793;28;20258;-44
2020/12/09 11:17:08;;;;;;;45.90;21.13;;;4.00;99.90;;;;;;5004817;28;20984;-45
2020/12/09 11:19:33;;;;;;;42.27;20.90;;;4.10;99.90;;;;;;4991100;28;20196;-43
2020/12/09 11:21:59;;;;;;;42.47;19.97;;;4.00;99.90;;;;;;4997415;28;20197;-44
2020/12/09 11:24:25;;;;;;;44.53;20.93;;;4.00;99.90;;;;;;4981288;28;20196;-46
2020/12/09 11:26:51;;;;;;;47.27;21.37;;;4.00;99.90;;;;;;5003546;28;20189;-46
2020/12/09 11:29:16;;;;;;;48.03;21.57;;;4.00;99.90;;;;;;4995808;28;20215;-43
2020/12/09 11:31:42;;;;;;;45.67;20.03;;;4.00;99.90;;;;;;4997543;28;20268;-47
2020/12/09 11:34:07;;;;;;;44.40;21.37;;;4.00;99.90;;;;;;5000168;28;20191;-44
2020/12/09 11:36:33;;;;;;;44.13;20.93;;;4.10;99.90;;;;;;4999738;28;20184;-46
2020/12/09 11:38:58;;;;;;;46.23;21.03;;;4.10;99.90;;;;;;5009879;28;20176;-49
2020/12/09 11:41:26;;;;;;;45.30;21.37;;;4.10;99.90;;;;;;4986976;28;20637;-48
2020/12/09 11:43:54;;;;;;;46.27;21.43;;;4.10;99.90;;;;;;4989046;28;20208;-47
2020/12/09 11:46:20;;;;;;;48.50;22.53;;;4.10;99.90;;;;;;5003778;28;20181;-49
2020/12/09 11:48:45;;;;;;;49.60;21.83;;;4.10;99.90;;;;;;5004748;28;20282;-44
2020/12/09 11:51:14;;;;;;;43.07;20.57;;;4.10;99.90;;;;;;4994142;28;20877;-43
2020/12/09 11:53:39;;;;;;;46.13;21.87;;;4.20;99.90;;;;;;4984197;28;20212;-46
2020/12/09 11:56:05;;;;;;;43.13;21.63;;;4.20;99.90;;;;;;4983584;28;20475;-46
2020/12/09 11:58:30;;;;;;;53.13;22.40;;;4.20;99.90;;;;;;4999553;28;20184;-43
2020/12/09 12:00:56;;;;;;;46.77;22.47;;;4.20;99.90;;;;;;4991081;28;20193;-50
2020/12/09 12:03:21;;;;;;;51.93;22.80;;;4.10;99.90;;;;;;5001898;28;20215;-48
2020/12/09 12:05:52;;;;;;;50.17;22.10;;;4.10;99.90;;;;;;4996173;28;20677;-45
2020/12/09 12:08:17;;;;;;;51.60;22.20;;;4.20;99.90;;;;;;5001164;28;20924;-46
2020/12/09 12:10:43;;;;;;;48.63;24.10;;;4.20;99.90;;;;;;5000595;28;20207;-45
2020/12/09 12:13:08;;;;;;;47.27;22.97;;;4.10;99.90;;;;;;4978915;28;20762;-48
2020/12/09 12:15:34;;;;;;;52.67;23.43;;;4.10;99.90;;;;;;4998842;28;20357;-43
2020/12/09 12:17:59;;;;;;;45.83;22.93;;;4.10;99.90;;;;;;5002084;28;20516;-49
2020/12/09 12:20:24;;;;;;;50.33;22.53;;;4.20;99.90;;;;;;5000149;28;20346;-45
2020/12/09 12:22:50;;;;;;;46.93;22.50;;;4.20;99.90;;;;;;5008192;28;20649;-44
2020/12/09 12:25:16;;;;;;;49.33;22.37;;;4.10;99.90;;;;;;4992676;28;20184;-47
2020/12/09 12:27:41;;;;;;;50.97;23.53;;;4.20;99.90;;;;;;4994035;28;20227;-43
2020/12/09 12:30:07;;;;;;;48.67;23.40;;;4.20;99.90;;;;;;5005373;28;20828;-45
2020/12/09 12:32:32;;;;;;;46.07;23.47;;;4.20;99.90;;;;;;5000413;28;20234;-44